Kitscoty, Canada
Current Conditions -  °F | °C
As of 6:00 PM on Friday 24 Oct 2014 (Local Time) from CYLL Reporting Station
Few Clouds Few Clouds  
Wind Chill: 39°   Ceiling: Unl
Heat Index: 45°   Visibility: 15mi
Dew Point: 25°   Wind: 12mph
Humidity: 46%   Direction: 290°WNW
Pressure: 29.87"   Gusts: NA
Location:  53.34°N, 110.33°W
Report Text: CYLL 250000Z 29010KT 15SM FEW060 FEW250 07/M04 A2987 RMK SC1CI1 SLP138
Loading
Personal Weather Stations






























Interactive Weather Map
Tropical Storm Tracking
New forecast layout! Learn more

10-Day Weather Forecast

Advertisements
Track Severe Weather on mobile